createdAt,value
2023-02-03T05:41:58.436Z,13.15
2023-02-03T05:45:01.363Z,12.97
2023-02-03T05:48:05.432Z,4.15
2023-02-03T05:51:07.924Z,7.20
2023-02-03T05:54:10.617Z,3.58
2023-02-03T05:57:13.638Z,5.20
2023-02-03T06:00:16.533Z,3.05
2023-02-03T06:03:22.223Z,8.93
2023-02-03T06:06:24.864Z,7.87
2023-02-03T06:09:27.396Z,8.07
2023-02-03T06:12:29.869Z,3.70
2023-02-03T06:15:32.437Z,10.20
2023-02-03T06:18:34.977Z,10.50
2023-02-03T06:21:37.452Z,18.52
2023-02-03T06:24:40.012Z,21.02
2023-02-03T06:27:42.661Z,16.67
2023-02-03T06:30:45.441Z,10.32
2023-02-03T06:33:48.085Z,12.10
2023-02-03T06:36:50.615Z,10.15
2023-02-03T06:39:53.108Z,12.52
2023-02-03T06:42:55.851Z,14.77
2023-02-03T06:45:58.498Z,16.37
2023-02-03T06:49:01.154Z,14.68
2023-02-03T06:52:03.833Z,15.15
2023-02-03T06:55:06.843Z,17.33
2023-02-03T06:58:09.359Z,16.20
2023-02-03T07:01:11.983Z,11.52
2023-02-03T07:04:14.520Z,15.00
2023-02-03T07:07:17.216Z,13.93
2023-02-03T07:10:19.901Z,10.88
2023-02-03T07:13:22.459Z,11.32
2023-02-03T07:16:25.053Z,11.35
2023-02-03T07:19:27.610Z,12.73
2023-02-03T07:22:30.140Z,16.02
2023-02-03T07:25:32.696Z,16.30
2023-02-03T07:28:35.456Z,32.47
2023-02-03T07:31:38.577Z,32.60
2023-02-03T07:34:41.286Z,30.73
2023-02-03T07:37:43.895Z,28.87
2023-02-03T07:40:46.466Z,32.08
2023-02-03T07:43:49.022Z,33.65
2023-02-03T07:46:51.561Z,34.58
2023-02-03T07:49:54.195Z,34.53
2023-02-03T07:52:56.774Z,54.15
2023-02-03T07:56:03.169Z,34.78
2023-02-03T07:59:05.731Z,31.08
2023-02-03T08:02:11.390Z,18.12
2023-02-03T08:05:14.191Z,29.52
2023-02-03T08:08:16.936Z,46.65
2023-02-03T08:11:19.746Z,59.58
2023-02-03T08:14:22.442Z,41.25
2023-02-03T08:17:25.059Z,42.17
2023-02-03T08:20:27.939Z,31.98
2023-02-03T08:23:31.112Z,17.75
2023-02-03T08:26:34.160Z,15.38
2023-02-03T08:29:36.726Z,14.30
2023-02-03T08:32:39.312Z,14.18
2023-02-03T08:35:44.991Z,17.60
2023-02-03T08:38:47.562Z,48.95
2023-02-03T08:41:50.110Z,40.30
2023-02-03T08:44:53.064Z,24.23
2023-02-03T08:47:55.580Z,23.08
2023-02-03T08:50:58.247Z,20.65
2023-02-03T08:54:00.851Z,17.95
2023-02-03T08:57:03.516Z,19.90
2023-02-03T09:00:06.656Z,13.27
2023-02-03T09:03:09.314Z,16.50
2023-02-03T09:06:13.325Z,20.73
2023-02-03T09:09:15.929Z,22.30
2023-02-03T09:12:18.583Z,24.33
2023-02-03T09:15:21.130Z,16.50
2023-02-03T09:18:23.632Z,23.60
2023-02-03T09:21:34.052Z,21.20
2023-02-03T09:24:43.905Z,7.95
2023-02-03T09:27:46.596Z,9.10
2023-02-03T09:30:49.225Z,14.82
2023-02-03T09:33:51.804Z,9.65
2023-02-03T09:36:54.427Z,19.23
2023-02-03T09:39:58.902Z,5.70
2023-02-03T09:43:24.739Z,9.57
2023-02-03T09:46:28.856Z,10.20
2023-02-03T09:49:52.555Z,7.55
2023-02-03T09:52:55.127Z,8.88
2023-02-03T09:55:57.728Z,19.52
2023-02-03T09:59:01.412Z,35.85
2023-02-03T10:02:10.244Z,31.52
2023-02-03T10:05:31.969Z,32.35
2023-02-03T10:08:53.282Z,27.23
2023-02-03T10:11:59.031Z,31.87
2023-02-03T10:15:19.893Z,25.33
2023-02-03T10:18:28.965Z,33.80
2023-02-03T10:21:42.314Z,22.35
2023-02-03T10:25:02.998Z,27.10
2023-02-03T10:28:11.225Z,22.20
2023-02-03T10:31:18.038Z,19.87
2023-02-03T10:34:20.771Z,16.85
2023-02-03T10:37:31.156Z,13.70
2023-02-03T10:40:33.804Z,12.50
2023-02-03T10:43:48.728Z,15.35
2023-02-03T10:46:51.311Z,11.02
2023-02-03T10:49:55.528Z,16.08
2023-02-03T10:53:26.721Z,16.05
2023-02-03T10:56:35.595Z,14.00
2023-02-03T10:59:43.775Z,11.82
2023-02-03T11:02:46.410Z,9.15
2023-02-03T11:06:13.445Z,10.82
2023-02-03T11:09:40.283Z,11.95
2023-02-03T11:12:42.815Z,13.02
2023-02-03T11:15:58.271Z,9.02
2023-02-03T11:19:11.551Z,11.80
2023-02-03T11:22:37.336Z,9.25
2023-02-03T11:25:40.007Z,9.40
2023-02-03T11:28:43.631Z,8.63
2023-02-03T11:31:50.539Z,7.90
2023-02-03T11:35:02.511Z,9.63
2023-02-03T11:38:05.096Z,12.10
2023-02-03T11:41:16.360Z,9.43
2023-02-03T11:44:29.317Z,9.00
2023-02-03T11:47:31.814Z,14.40
2023-02-03T11:50:49.575Z,16.10
2023-02-03T11:54:19.489Z,24.48
2023-02-03T11:57:22.057Z,23.45
2023-02-03T12:00:31.591Z,19.23
2023-02-03T12:04:02.351Z,12.95
2023-02-03T12:07:31.587Z,14.27
2023-02-03T12:10:56.959Z,14.18
2023-02-03T12:14:24.346Z,9.98
2023-02-03T12:17:33.612Z,11.77
2023-02-03T12:20:40.723Z,12.50
2023-02-03T12:24:04.403Z,35.08
2023-02-03T12:27:27.117Z,20.10
2023-02-03T12:30:33.260Z,8.55
2023-02-03T12:33:40.634Z,9.13
2023-02-03T12:36:48.089Z,8.98
2023-02-03T12:40:21.801Z,7.28
2023-02-03T12:43:33.637Z,7.28
2023-02-03T12:46:50.158Z,5.90
2023-02-03T12:50:01.163Z,9.57
2023-02-03T12:53:12.404Z,7.30
2023-02-03T12:56:17.075Z,9.10
2023-02-03T12:59:23.066Z,10.15
2023-02-03T13:02:35.479Z,6.72
2023-02-03T13:05:47.431Z,7.87
2023-02-03T13:09:21.314Z,8.60
2023-02-03T13:12:47.646Z,8.85
2023-02-03T13:15:52.831Z,9.50
2023-02-03T13:18:59.851Z,8.90
2023-02-03T13:22:02.662Z,11.02
2023-02-03T13:25:28.952Z,9.52
2023-02-03T13:29:08.405Z,10.88
2023-02-03T13:32:26.303Z,32.33
2023-02-03T13:36:10.627Z,69.97
2023-02-03T13:39:38.111Z,31.98
2023-02-03T13:42:46.807Z,33.70
2023-02-03T13:45:50.818Z,19.90
2023-02-03T13:48:53.555Z,28.33
2023-02-03T13:51:56.220Z,16.95
2023-02-03T13:54:58.816Z,66.55
2023-02-03T13:58:01.601Z,42.10
2023-02-03T14:01:37.233Z,20.15
2023-02-03T14:04:45.703Z,17.70
2023-02-03T14:07:48.339Z,15.10
2023-02-03T14:11:29.137Z,14.43
2023-02-03T14:14:34.940Z,16.20
2023-02-03T14:17:43.473Z,14.15
2023-02-03T14:20:49.026Z,20.35
2023-02-03T14:23:55.774Z,18.08
2023-02-03T14:26:58.329Z,16.73
2023-02-03T14:30:09.087Z,20.45
2023-02-03T14:33:11.674Z,15.20
2023-02-03T14:36:38.080Z,14.70
2023-02-03T14:40:07.483Z,16.27
2023-02-03T14:43:19.575Z,16.50
2023-02-03T14:46:53.627Z,17.75
2023-02-03T14:49:59.352Z,31.10
2023-02-03T14:53:01.773Z,22.62
2023-02-03T14:56:07.101Z,18.35
2023-02-03T15:02:15.165Z,23.23
2023-02-03T15:05:17.922Z,22.95
2023-02-03T15:08:34.220Z,18.80
2023-02-03T15:11:46.938Z,23.90
2023-02-03T15:14:49.456Z,19.77
2023-02-03T15:17:53.749Z,21.58
2023-02-03T15:20:56.404Z,15.85
2023-02-03T15:23:58.939Z,20.12
2023-02-03T15:27:01.457Z,17.52
2023-02-03T15:30:25.419Z,17.08
2023-02-03T15:33:27.964Z,20.17
2023-02-03T15:36:44.653Z,18.35
2023-02-03T15:39:59.435Z,21.98
2023-02-03T15:43:04.551Z,18.00
2023-02-03T15:46:13.266Z,17.67
2023-02-03T15:49:25.560Z,23.80
2023-02-03T15:52:28.194Z,19.50
2023-02-03T15:55:43.869Z,13.95
2023-02-03T15:58:47.156Z,14.98
2023-02-03T16:01:49.819Z,16.83
2023-02-03T16:04:52.465Z,14.60
2023-02-03T16:07:55.127Z,18.67
2023-02-03T16:10:57.663Z,12.95
2023-02-03T16:14:07.198Z,9.98
2023-02-03T16:17:34.754Z,10.10
2023-02-03T16:20:37.659Z,12.18
2023-02-03T16:23:40.194Z,9.07
2023-02-03T16:26:42.686Z,9.20
2023-02-03T16:30:03.960Z,8.77
2023-02-03T16:33:28.331Z,13.95
2023-02-03T16:36:49.759Z,14.45
2023-02-03T16:40:10.927Z,12.48
2023-02-03T16:43:33.266Z,14.95
2023-02-03T16:46:54.477Z,12.15
2023-02-03T16:50:15.431Z,16.45
2023-02-03T16:53:20.316Z,16.55
